createdAt,value
2018-09-28T00:00:36.474Z,4.23
2018-09-28T00:03:04.650Z,4.63
2018-09-28T00:05:32.864Z,4.67
2018-09-28T00:08:01.039Z,4.70
2018-09-28T00:10:29.334Z,4.60
2018-09-28T00:12:57.494Z,4.00
2018-09-28T00:15:25.779Z,4.53
2018-09-28T00:17:53.939Z,3.80
2018-09-28T00:20:22.091Z,3.90
2018-09-28T00:22:50.246Z,4.63
2018-09-28T00:25:18.427Z,3.93
2018-09-28T00:27:46.576Z,4.27
2018-09-28T00:30:14.730Z,5.03
2018-09-28T00:32:42.890Z,3.43
2018-09-28T00:35:11.050Z,5.00
2018-09-28T00:37:39.247Z,4.57
2018-09-28T00:40:07.423Z,3.83
2018-09-28T00:42:35.624Z,3.90
2018-09-28T00:45:03.775Z,4.07
2018-09-28T00:47:31.941Z,4.23
2018-09-28T00:50:00.086Z,3.87
2018-09-28T00:52:28.242Z,4.40
2018-09-28T00:54:56.541Z,3.60
2018-09-28T00:57:24.707Z,3.63
2018-09-28T00:59:52.882Z,3.97
2018-09-28T01:02:21.030Z,4.57
2018-09-28T01:04:49.199Z,3.90
2018-09-28T01:07:17.350Z,3.27
2018-09-28T01:09:45.556Z,4.17
2018-09-28T01:12:13.747Z,3.97
2018-09-28T01:14:41.927Z,4.30
2018-09-28T01:17:10.085Z,4.63
2018-09-28T01:19:38.250Z,3.57
2018-09-28T01:22:06.454Z,3.30
2018-09-28T01:24:34.615Z,5.10
2018-09-28T01:27:02.767Z,3.07
2018-09-28T01:29:30.950Z,4.67
2018-09-28T01:31:59.103Z,3.83
2018-09-28T01:34:27.426Z,5.23
2018-09-28T01:36:55.586Z,3.33
2018-09-28T01:39:23.754Z,3.40
2018-09-28T01:41:51.898Z,3.53
2018-09-28T01:44:20.111Z,3.73
2018-09-28T01:46:48.275Z,3.17
2018-09-28T01:49:16.463Z,4.53
2018-09-28T01:51:44.623Z,3.20
2018-09-28T01:54:12.786Z,4.30
2018-09-28T01:56:40.934Z,4.23
2018-09-28T01:59:09.095Z,3.50
2018-09-28T02:01:37.247Z,3.33
2018-09-28T02:04:05.407Z,4.03
2018-09-28T02:06:33.565Z,3.00
2018-09-28T02:09:01.749Z,3.63
2018-09-28T02:11:29.903Z,3.40
2018-09-28T02:13:58.065Z,3.67
2018-09-28T02:16:26.232Z,3.83
2018-09-28T02:18:54.431Z,4.23
2018-09-28T02:21:22.607Z,2.97
2018-09-28T02:23:50.779Z,3.47
2018-09-28T02:26:18.931Z,3.17
2018-09-28T02:28:47.094Z,4.17
2018-09-28T02:31:15.242Z,3.20
2018-09-28T02:33:43.406Z,2.67
2018-09-28T02:36:11.556Z,3.23
2018-09-28T02:38:39.723Z,3.00
2018-09-28T02:41:07.917Z,3.47
2018-09-28T02:43:36.063Z,3.03
2018-09-28T02:46:04.235Z,2.63
2018-09-28T02:48:32.387Z,3.07
2018-09-28T02:51:00.583Z,3.23
2018-09-28T02:53:28.784Z,3.47
2018-09-28T02:55:56.978Z,3.17
2018-09-28T02:58:25.134Z,3.57
2018-09-28T03:00:53.292Z,3.20
2018-09-28T03:03:21.434Z,2.83
2018-09-28T03:05:49.630Z,2.77
2018-09-28T03:08:17.787Z,2.67
2018-09-28T03:10:45.951Z,3.27
2018-09-28T03:13:14.111Z,3.00
2018-09-28T03:15:42.279Z,3.83
2018-09-28T03:18:10.454Z,2.80
2018-09-28T03:20:38.610Z,2.70
2018-09-28T03:23:06.762Z,3.40
2018-09-28T03:25:34.956Z,2.83
2018-09-28T03:28:03.120Z,3.60
2018-09-28T03:30:31.292Z,2.40
2018-09-28T03:32:59.498Z,3.70
2018-09-28T03:35:27.694Z,3.07
2018-09-28T03:37:55.842Z,4.63
2018-09-28T03:40:24.073Z,3.50
2018-09-28T03:42:52.183Z,4.30
2018-09-28T03:45:20.348Z,3.87
2018-09-28T03:47:49.358Z,4.40
2018-09-28T03:50:17.636Z,2.87
2018-09-28T03:52:45.798Z,3.50
2018-09-28T03:55:14.287Z,3.70
2018-09-28T03:57:42.459Z,5.13
2018-09-28T04:00:11.268Z,4.40
2018-09-28T04:02:40.179Z,4.17
2018-09-28T04:05:08.363Z,4.47
2018-09-28T04:07:37.131Z,5.00
2018-09-28T04:10:06.200Z,5.53
2018-09-28T04:12:34.463Z,4.50
2018-09-28T04:15:02.759Z,5.10
2018-09-28T04:17:30.901Z,4.27
2018-09-28T04:19:59.282Z,4.40
2018-09-28T04:22:27.454Z,4.40
2018-09-28T04:24:55.606Z,4.90
2018-09-28T04:27:23.770Z,4.70
2018-09-28T04:29:51.922Z,5.00
2018-09-28T04:32:20.128Z,4.50
2018-09-28T04:34:48.298Z,4.00
2018-09-28T04:37:16.476Z,5.50
2018-09-28T04:39:44.644Z,3.77
2018-09-28T04:42:12.811Z,4.70
2018-09-28T04:44:40.971Z,4.20
2018-09-28T04:47:09.135Z,5.00
2018-09-28T04:49:37.315Z,4.20
2018-09-28T04:52:05.518Z,5.23
2018-09-28T04:54:33.691Z,3.60
2018-09-28T04:57:01.846Z,4.87
2018-09-28T04:59:30.011Z,3.53
2018-09-28T05:01:58.330Z,3.93
2018-09-28T05:04:26.482Z,4.07
2018-09-28T05:06:54.675Z,5.17
2018-09-28T05:09:22.867Z,5.00
2018-09-28T05:11:51.042Z,5.20
2018-09-28T05:14:19.271Z,7.43
2018-09-28T05:16:47.438Z,4.97
2018-09-28T05:19:15.600Z,5.60
2018-09-28T05:21:43.767Z,4.70
2018-09-28T05:24:11.923Z,4.43
2018-09-28T05:26:40.089Z,5.47
2018-09-28T05:29:09.123Z,4.67
2018-09-28T05:31:37.366Z,5.43
2018-09-28T05:34:05.467Z,4.50
2018-09-28T05:36:33.637Z,5.30
2018-09-28T05:39:01.819Z,6.50
2018-09-28T05:41:30.015Z,4.90
2018-09-28T05:43:58.227Z,4.90
2018-09-28T05:46:26.517Z,5.57
2018-09-28T05:48:54.614Z,5.33
2018-09-28T05:51:22.834Z,5.10
2018-09-28T05:53:50.966Z,5.50
2018-09-28T05:56:19.146Z,4.97
2018-09-28T05:58:52.554Z,5.50
2018-09-28T06:01:26.242Z,5.90
2018-09-28T06:03:59.928Z,5.20
2018-09-28T06:06:28.127Z,5.23
2018-09-28T06:08:56.295Z,5.07
2018-09-28T06:11:24.462Z,5.50
2018-09-28T06:13:52.704Z,6.00
2018-09-28T06:16:20.906Z,7.13
2018-09-28T06:18:49.110Z,5.33
2018-09-28T06:21:17.283Z,4.93
2018-09-28T06:23:45.492Z,6.33
2018-09-28T06:26:13.630Z,7.67
2018-09-28T06:28:41.822Z,6.93
2018-09-28T06:31:10.011Z,8.77
2018-09-28T06:33:38.199Z,7.67
2018-09-28T06:36:06.418Z,7.47
2018-09-28T06:38:34.568Z,7.60
2018-09-28T06:41:03.730Z,7.37
2018-09-28T06:43:31.907Z,7.60
2018-09-28T06:46:00.079Z,8.97
2018-09-28T06:48:28.264Z,8.63
2018-09-28T06:50:56.475Z,7.13
2018-09-28T06:53:24.676Z,8.03
2018-09-28T06:55:52.850Z,7.30
2018-09-28T06:58:21.416Z,6.70
2018-09-28T07:00:49.471Z,9.13
2018-09-28T07:03:17.655Z,5.90
2018-09-28T07:05:45.835Z,7.73
2018-09-28T07:08:14.007Z,8.67
2018-09-28T07:10:42.182Z,7.60
2018-09-28T07:13:10.366Z,7.67
2018-09-28T07:15:38.540Z,6.17
2018-09-28T07:18:06.773Z,7.07
2018-09-28T07:20:34.922Z,6.53
2018-09-28T07:23:03.099Z,7.90
2018-09-28T07:25:31.312Z,6.90
2018-09-28T07:27:59.553Z,7.83
2018-09-28T07:30:27.756Z,9.33
2018-09-28T07:32:55.947Z,7.93
2018-09-28T07:35:24.161Z,5.87
2018-09-28T07:37:52.346Z,8.10
2018-09-28T07:40:20.602Z,6.87
2018-09-28T07:42:48.799Z,7.13
2018-09-28T07:45:17.015Z,5.73
2018-09-28T07:47:45.503Z,7.17
2018-09-28T07:50:13.711Z,5.87
2018-09-28T07:52:41.873Z,6.30
2018-09-28T07:55:10.615Z,6.27
2018-09-28T07:57:38.806Z,5.67
2018-09-28T08:00:07.023Z,5.80
2018-09-28T08:02:35.267Z,5.33
2018-09-28T08:05:03.560Z,5.30
2018-09-28T08:07:31.735Z,5.80
2018-09-28T08:09:59.930Z,5.03
2018-09-28T08:12:28.129Z,4.70
2018-09-28T08:14:56.506Z,5.17
2018-09-28T08:17:24.700Z,6.13
2018-09-28T08:19:52.891Z,4.37
2018-09-28T08:22:21.079Z,6.37
2018-09-28T08:24:49.328Z,4.63
2018-09-28T08:27:17.620Z,4.67
2018-09-28T08:29:45.806Z,5.53
2018-09-28T08:32:14.015Z,3.80
2018-09-28T08:34:42.203Z,4.63
2018-09-28T08:37:10.415Z,4.43
2018-09-28T08:39:38.744Z,4.57
2018-09-28T08:42:07.624Z,4.40
2018-09-28T08:44:35.846Z,4.03
2018-09-28T08:47:04.027Z,5.53
2018-09-28T08:49:32.219Z,5.03
2018-09-28T08:52:00.403Z,4.60
2018-09-28T08:54:28.595Z,5.27
2018-09-28T08:56:57.066Z,5.17
2018-09-28T08:59:25.354Z,4.67
2018-09-28T09:01:53.539Z,5.03
2018-09-28T09:04:21.723Z,4.33
2018-09-28T09:06:50.370Z,4.63
2018-09-28T09:09:18.558Z,4.07
2018-09-28T09:11:46.747Z,4.03
2018-09-28T09:14:15.006Z,4.13
2018-09-28T09:16:43.145Z,4.50
2018-09-28T09:19:11.393Z,3.87
2018-09-28T09:21:39.727Z,5.67
2018-09-28T09:24:07.920Z,4.50
2018-09-28T09:26:36.111Z,4.73
2018-09-28T09:29:04.291Z,4.00
2018-09-28T09:31:32.506Z,4.17
2018-09-28T09:34:00.683Z,5.17
2018-09-28T09:36:28.884Z,4.50
2018-09-28T09:38:57.046Z,4.50
2018-09-28T09:41:25.225Z,3.70
2018-09-28T09:43:53.398Z,3.40
2018-09-28T09:46:21.583Z,3.20
2018-09-28T09:48:49.774Z,3.90
2018-09-28T09:51:17.955Z,3.10
2018-09-28T09:53:46.115Z,3.00
2018-09-28T09:56:14.320Z,3.00
2018-09-28T09:58:42.528Z,2.10
2018-09-28T10:01:14.959Z,2.13
2018-09-28T10:03:49.640Z,2.30
2018-09-28T10:06:17.819Z,2.77
2018-09-28T10:08:45.999Z,2.70
2018-09-28T10:11:14.166Z,2.93
2018-09-28T10:13:42.347Z,2.27
2018-09-28T10:16:10.527Z,2.40
2018-09-28T10:18:38.856Z,3.37
2018-09-28T10:21:07.219Z,2.63
2018-09-28T10:23:35.405Z,3.30
2018-09-28T10:26:03.583Z,3.00
2018-09-28T10:28:31.817Z,3.33
2018-09-28T10:30:59.998Z,3.57
2018-09-28T10:33:28.196Z,2.83
2018-09-28T10:35:56.358Z,2.50
2018-09-28T10:38:24.558Z,2.47
2018-09-28T10:40:52.865Z,2.90
2018-09-28T10:43:20.956Z,2.20
2018-09-28T10:45:49.366Z,2.47
2018-09-28T10:48:17.607Z,2.47
2018-09-28T10:50:45.811Z,2.77
2018-09-28T10:53:14.046Z,2.60
2018-09-28T10:55:42.226Z,2.67
2018-09-28T10:58:10.577Z,2.27
2018-09-28T11:00:38.839Z,2.53
2018-09-28T11:03:07.185Z,2.00
2018-09-28T11:05:35.500Z,2.90
2018-09-28T11:08:03.720Z,2.50
2018-09-28T11:10:31.947Z,2.97
2018-09-28T11:13:00.167Z,2.40
2018-09-28T11:15:28.652Z,2.80
2018-09-28T11:17:56.907Z,3.40
2018-09-28T11:20:25.590Z,2.80
2018-09-28T11:22:53.902Z,2.93
2018-09-28T11:25:22.112Z,2.13
2018-09-28T11:27:50.373Z,3.03
2018-09-28T11:30:18.638Z,2.07
2018-09-28T11:32:47.267Z,2.57
2018-09-28T11:35:15.583Z,2.87
2018-09-28T11:37:43.819Z,2.03
2018-09-28T11:40:11.943Z,2.97
2018-09-28T11:42:40.541Z,2.53
2018-09-28T11:45:08.884Z,2.50
2018-09-28T11:47:37.239Z,2.67
2018-09-28T11:50:06.258Z,2.90
2018-09-28T11:52:34.443Z,2.53
2018-09-28T11:55:02.902Z,2.67
2018-09-28T11:57:31.841Z,2.70
2018-09-28T12:00:00.684Z,3.60
2018-09-28T12:02:28.862Z,2.97
2018-09-28T12:04:57.185Z,3.03
2018-09-28T12:07:25.346Z,3.13
2018-09-28T12:09:53.550Z,3.00
2018-09-28T12:12:22.061Z,2.67
2018-09-28T12:14:50.159Z,2.87
2018-09-28T12:17:18.354Z,2.77
2018-09-28T12:19:46.919Z,3.10
2018-09-28T12:22:15.855Z,4.17
2018-09-28T12:24:44.470Z,3.10
2018-09-28T12:27:12.941Z,4.00
2018-09-28T12:29:41.277Z,3.43
2018-09-28T12:32:09.482Z,2.63
2018-09-28T12:34:37.664Z,2.80
2018-09-28T12:37:06.169Z,2.30
2018-09-28T12:39:34.833Z,2.50
2018-09-28T12:42:02.964Z,2.73
2018-09-28T12:44:31.263Z,3.40
2018-09-28T12:46:59.521Z,3.13
2018-09-28T12:49:28.071Z,2.47
2018-09-28T12:51:56.399Z,2.70
2018-09-28T12:54:24.705Z,2.73
2018-09-28T12:56:52.990Z,2.70
2018-09-28T12:59:21.171Z,3.77
2018-09-28T13:01:49.443Z,3.60
2018-09-28T13:04:18.684Z,2.90
2018-09-28T13:06:48.562Z,2.37
2018-09-28T13:09:16.765Z,3.60
2018-09-28T13:11:45.328Z,2.63
2018-09-28T13:14:13.736Z,3.20
2018-09-28T13:16:42.267Z,2.70
2018-09-28T13:19:10.663Z,2.60
2018-09-28T13:21:39.457Z,3.30
2018-09-28T13:24:07.634Z,2.53
2018-09-28T13:26:35.826Z,2.93
2018-09-28T13:29:05.313Z,2.67
2018-09-28T13:31:33.426Z,3.40
2018-09-28T13:34:01.629Z,3.50
2018-09-28T13:36:29.834Z,3.50
2018-09-28T13:38:58.098Z,3.07
2018-09-28T13:41:26.256Z,2.90
2018-09-28T13:43:54.631Z,3.17
2018-09-28T13:46:22.960Z,3.50
2018-09-28T13:48:51.251Z,2.87
2018-09-28T13:51:19.517Z,2.30
2018-09-28T13:53:47.837Z,2.90
2018-09-28T13:56:16.048Z,2.80
2018-09-28T13:58:44.259Z,2.50
2018-09-28T14:01:12.387Z,2.83
2018-09-28T14:03:40.612Z,2.73
2018-09-28T14:06:08.861Z,2.70
2018-09-28T14:08:37.221Z,2.50
2018-09-28T14:11:05.398Z,3.13
2018-09-28T14:13:34.165Z,2.50
2018-09-28T14:16:02.358Z,2.73
2018-09-28T14:18:30.594Z,2.87
2018-09-28T14:20:58.751Z,3.00
2018-09-28T14:23:26.947Z,3.30
2018-09-28T14:25:55.143Z,2.53
2018-09-28T14:28:23.387Z,3.17
2018-09-28T14:30:51.697Z,2.77
2018-09-28T14:33:19.863Z,3.33
2018-09-28T14:35:48.068Z,2.67
2018-09-28T14:38:16.302Z,2.40
2018-09-28T14:40:44.525Z,3.17
2018-09-28T14:43:12.668Z,2.30
2018-09-28T14:45:40.866Z,2.60
2018-09-28T14:48:09.103Z,2.83
2018-09-28T14:50:37.295Z,2.77
2018-09-28T14:53:05.403Z,2.57
2018-09-28T14:55:33.643Z,2.77
2018-09-28T14:58:01.839Z,2.90
2018-09-28T15:00:30.055Z,2.03
2018-09-28T15:02:58.370Z,3.37
2018-09-28T15:05:26.627Z,2.63
2018-09-28T15:07:54.808Z,2.70
2018-09-28T15:10:23.220Z,2.70
2018-09-28T15:12:51.292Z,2.90
2018-09-28T15:15:19.542Z,2.27
2018-09-28T15:17:47.700Z,2.27
2018-09-28T15:20:15.906Z,2.50
2018-09-28T15:22:44.083Z,3.03
2018-09-28T15:25:12.264Z,2.47
2018-09-28T15:27:40.443Z,2.67
2018-09-28T15:30:08.927Z,2.90
2018-09-28T15:32:37.271Z,3.10
2018-09-28T15:35:05.759Z,2.90
2018-09-28T15:37:33.975Z,2.80
2018-09-28T15:40:02.181Z,2.17
2018-09-28T15:42:30.362Z,2.03
2018-09-28T15:44:58.959Z,3.07
2018-09-28T15:47:27.183Z,2.60
2018-09-28T15:49:55.394Z,2.87
2018-09-28T15:52:23.652Z,3.27
2018-09-28T15:54:51.880Z,2.90
2018-09-28T15:57:20.092Z,2.43
2018-09-28T15:59:48.291Z,2.53
2018-09-28T16:02:16.492Z,2.57
2018-09-28T16:04:44.687Z,3.13
2018-09-28T16:07:12.863Z,3.07
2018-09-28T16:09:41.071Z,2.97
2018-09-28T16:12:09.493Z,3.13
2018-09-28T16:14:37.674Z,3.10
2018-09-28T16:17:05.911Z,3.63
2018-09-28T16:19:34.144Z,3.43
2018-09-28T16:22:02.352Z,3.30
2018-09-28T16:24:30.619Z,2.90
2018-09-28T16:26:59.114Z,3.27
2018-09-28T16:29:27.352Z,2.63
2018-09-28T16:31:55.576Z,3.33
2018-09-28T16:34:23.755Z,2.77
2018-09-28T16:36:52.215Z,2.47
2018-09-28T16:39:20.444Z,3.07
2018-09-28T16:41:48.643Z,2.97
2018-09-28T16:44:16.954Z,3.30
2018-09-28T16:46:45.194Z,3.40
2018-09-28T16:49:13.374Z,3.40
2018-09-28T16:51:41.569Z,5.13
2018-09-28T16:54:09.757Z,4.13
2018-09-28T16:56:37.985Z,4.00
2018-09-28T16:59:06.379Z,4.03
2018-09-28T17:01:34.591Z,3.40
2018-09-28T17:04:02.809Z,3.47
2018-09-28T17:06:31.015Z,3.27
2018-09-28T17:08:59.213Z,2.80
2018-09-28T17:11:27.407Z,3.50
2018-09-28T17:13:55.587Z,3.57
2018-09-28T17:16:23.790Z,3.80
2018-09-28T17:18:51.987Z,3.37
2018-09-28T17:21:20.175Z,2.90
2018-09-28T17:23:48.360Z,3.33
2018-09-28T17:26:16.571Z,3.20
2018-09-28T17:28:44.901Z,2.87
2018-09-28T17:31:13.061Z,3.30
2018-09-28T17:33:41.243Z,3.73
2018-09-28T17:36:09.447Z,3.70
2018-09-28T17:38:37.856Z,4.67
2018-09-28T17:41:06.093Z,5.90
2018-09-28T17:43:34.296Z,3.77
2018-09-28T17:46:02.474Z,4.53
2018-09-28T17:48:30.635Z,4.30
2018-09-28T17:50:58.799Z,5.77
2018-09-28T17:53:26.971Z,4.73
2018-09-28T17:55:55.139Z,5.10
2018-09-28T17:58:23.315Z,5.47
2018-09-28T18:00:51.610Z,5.40
2018-09-28T18:03:19.802Z,5.87
2018-09-28T18:05:48.040Z,5.33
2018-09-28T18:08:16.169Z,4.67
2018-09-28T18:10:44.331Z,4.93
2018-09-28T18:13:12.507Z,5.57
2018-09-28T18:15:40.714Z,6.97
2018-09-28T18:18:08.919Z,4.90
2018-09-28T18:20:37.087Z,6.17
2018-09-28T18:23:05.480Z,5.33
2018-09-28T18:25:33.663Z,5.87
2018-09-28T18:28:02.027Z,5.43
2018-09-28T18:30:30.228Z,6.30
2018-09-28T18:32:58.412Z,5.80
2018-09-28T18:35:26.593Z,5.97
2018-09-28T18:37:54.783Z,4.80
2018-09-28T18:40:22.991Z,5.50
2018-09-28T18:42:51.175Z,4.57
2018-09-28T18:45:19.358Z,6.50
2018-09-28T18:47:47.559Z,6.30
2018-09-28T18:50:15.895Z,7.27
2018-09-28T18:52:44.144Z,11.33
2018-09-28T18:55:12.396Z,12.00
2018-09-28T18:57:40.724Z,10.80
2018-09-28T19:00:09.019Z,10.50
2018-09-28T19:02:37.213Z,8.13
2018-09-28T19:05:05.473Z,8.63
2018-09-28T19:07:33.842Z,7.43
2018-09-28T19:10:02.144Z,9.13
2018-09-28T19:12:30.557Z,8.53
2018-09-28T19:14:58.779Z,8.73
2018-09-28T19:17:27.347Z,8.20
2018-09-28T19:19:55.692Z,7.33
2018-09-28T19:22:24.099Z,6.47
2018-09-28T19:24:52.349Z,6.53
2018-09-28T19:27:20.798Z,7.00
2018-09-28T19:29:49.119Z,5.47
2018-09-28T19:32:17.323Z,5.13
2018-09-28T19:34:45.538Z,6.63
2018-09-28T19:37:13.747Z,6.00
2018-09-28T19:39:43.507Z,5.77
2018-09-28T19:42:11.928Z,6.30
2018-09-28T19:44:41.743Z,5.13
2018-09-28T19:47:09.935Z,6.03
2018-09-28T19:49:38.107Z,6.60
2018-09-28T19:52:06.315Z,5.43
2018-09-28T19:54:34.634Z,7.00
2018-09-28T19:57:03.013Z,8.80
2018-09-28T19:59:31.624Z,9.27
2018-09-28T20:02:00.160Z,7.93
2018-09-28T20:04:28.454Z,10.10
2018-09-28T20:06:57.039Z,8.10
2018-09-28T20:09:25.604Z,9.17
2018-09-28T20:11:54.180Z,8.80
2018-09-28T20:14:22.621Z,8.53
2018-09-28T20:16:50.808Z,9.10
2018-09-28T20:19:19.023Z,9.83
2018-09-28T20:21:47.219Z,7.10
2018-09-28T20:24:15.398Z,9.63
2018-09-28T20:26:43.562Z,7.17
2018-09-28T20:29:11.735Z,8.83
2018-09-28T20:31:39.911Z,8.23
2018-09-28T20:34:08.083Z,8.50
2018-09-28T20:36:36.262Z,7.03
2018-09-28T20:39:08.262Z,8.03
2018-09-28T20:41:36.737Z,8.23
2018-09-28T20:44:04.923Z,7.37
2018-09-28T20:46:33.098Z,8.57
2018-09-28T20:49:01.385Z,6.53
2018-09-28T20:51:29.772Z,7.70
2018-09-28T20:53:58.261Z,6.80
2018-09-28T20:56:26.435Z,6.70
2018-09-28T20:58:54.664Z,5.60
2018-09-28T21:01:22.830Z,6.97
2018-09-28T21:03:51.107Z,5.23
2018-09-28T21:06:19.279Z,7.27
2018-09-28T21:08:47.555Z,5.07
2018-09-28T21:11:15.726Z,6.07
2018-09-28T21:13:43.924Z,5.17
2018-09-28T21:16:12.263Z,6.30
2018-09-28T21:18:40.661Z,6.40
2018-09-28T21:21:08.847Z,5.73
2018-09-28T21:23:37.186Z,4.67
2018-09-28T21:26:05.330Z,7.13
2018-09-28T21:28:33.577Z,5.60
2018-09-28T21:31:01.856Z,4.57
2018-09-28T21:33:30.102Z,4.20
2018-09-28T21:35:58.277Z,4.73
2018-09-28T21:38:26.466Z,3.40
2018-09-28T21:40:54.638Z,4.30
2018-09-28T21:43:22.812Z,3.73
2018-09-28T21:45:51.005Z,3.63
2018-09-28T21:48:19.175Z,3.17
2018-09-28T21:50:47.438Z,3.63
2018-09-28T21:53:15.623Z,2.97
2018-09-28T21:55:43.811Z,3.90
2018-09-28T21:58:11.975Z,3.57
2018-09-28T22:00:40.154Z,3.63
2018-09-28T22:03:09.165Z,3.63
2018-09-28T22:05:37.351Z,3.83
2018-09-28T22:08:05.515Z,4.17
2018-09-28T22:10:34.200Z,3.87
2018-09-28T22:13:02.404Z,4.17
2018-09-28T22:15:30.570Z,3.70
2018-09-28T22:17:58.875Z,2.63
2018-09-28T22:20:27.039Z,3.53
2018-09-28T22:22:55.189Z,3.53
2018-09-28T22:25:23.359Z,3.30
2018-09-28T22:27:51.514Z,3.90
2018-09-28T22:30:19.684Z,4.13
2018-09-28T22:32:47.835Z,4.13
2018-09-28T22:35:15.999Z,4.33
2018-09-28T22:37:44.163Z,3.83
2018-09-28T22:40:12.339Z,3.20
2018-09-28T22:42:40.516Z,4.27
2018-09-28T22:45:08.878Z,5.63
2018-09-28T22:47:37.088Z,4.47
2018-09-28T22:50:05.386Z,4.80
2018-09-28T22:52:33.803Z,4.33
2018-09-28T22:55:01.962Z,5.43
2018-09-28T22:57:30.123Z,5.67
2018-09-28T22:59:58.332Z,5.03
2018-09-28T23:02:26.498Z,5.60
2018-09-28T23:04:54.655Z,6.10
2018-09-28T23:07:22.810Z,5.63
2018-09-28T23:09:50.969Z,6.57
2018-09-28T23:12:19.130Z,7.30
2018-09-28T23:14:47.294Z,7.43
2018-09-28T23:17:15.458Z,8.10
2018-09-28T23:19:43.623Z,6.73
2018-09-28T23:22:11.821Z,8.37
2018-09-28T23:24:40.003Z,8.90
2018-09-28T23:27:08.155Z,8.07
2018-09-28T23:29:36.439Z,8.70
2018-09-28T23:32:04.607Z,9.60
2018-09-28T23:34:32.822Z,8.27
2018-09-28T23:37:00.995Z,9.07
2018-09-28T23:39:29.186Z,8.53
2018-09-28T23:41:57.364Z,8.43
2018-09-28T23:44:25.531Z,8.73
2018-09-28T23:46:53.706Z,9.27
2018-09-28T23:49:21.907Z,10.03
2018-09-28T23:51:50.473Z,9.93
2018-09-28T23:54:18.682Z,10.73
2018-09-28T23:56:47.138Z,10.20
2018-09-28T23:59:15.347Z,10.00
